createdAt,value
2022-09-10T00:29:14.917Z,1001.53
2022-09-10T00:29:55.367Z,1001.53
2022-09-10T00:30:35.830Z,1001.52
2022-09-10T00:31:16.326Z,1001.52
2022-09-10T00:31:56.835Z,1001.52
2022-09-10T00:32:37.436Z,1001.53
2022-09-10T00:33:17.920Z,1001.55
2022-09-10T00:33:58.447Z,1001.51
2022-09-10T00:34:38.904Z,1001.59
2022-09-10T00:35:19.463Z,1001.58
2022-09-10T00:35:59.983Z,1001.56
2022-09-10T00:36:40.483Z,1001.59
2022-09-10T00:37:20.927Z,1001.6
2022-09-10T00:38:01.428Z,1001.58
2022-09-10T00:38:41.997Z,1001.6
2022-09-10T00:39:22.464Z,1001.61
2022-09-10T00:40:03.086Z,1001.61
2022-09-10T00:40:43.469Z,1001.59
2022-09-10T00:41:24.502Z,1001.64
2022-09-10T00:42:04.425Z,1001.56
2022-09-10T00:42:44.888Z,1001.56
2022-09-10T00:43:25.392Z,1001.58
2022-09-10T00:44:05.874Z,1001.56
2022-09-10T00:44:46.393Z,1001.55
2022-09-10T00:45:26.961Z,1001.55
2022-09-10T00:46:07.444Z,1001.54
2022-09-10T00:46:47.918Z,1001.53
2022-09-10T00:47:28.448Z,1001.53
2022-09-10T00:48:08.968Z,1001.53
2022-09-10T00:48:49.464Z,1001.53
2022-09-10T00:49:29.972Z,1001.52
2022-09-10T00:50:10.438Z,1001.52
2022-09-10T00:50:50.988Z,1001.52
2022-09-10T00:51:31.458Z,1001.52
2022-09-10T00:52:12.011Z,1001.51
2022-09-10T00:52:52.462Z,1001.49
2022-09-10T00:53:33.024Z,1001.48
2022-09-10T00:54:13.488Z,1001.48
2022-09-10T00:54:53.988Z,1001.48
2022-09-10T00:55:34.840Z,1001.49
2022-09-10T00:56:15.400Z,1001.49
2022-09-10T00:56:55.859Z,1001.5
2022-09-10T00:57:36.403Z,1001.5
2022-09-10T00:58:16.850Z,1001.44
2022-09-10T00:58:57.379Z,1001.49
2022-09-10T00:59:37.851Z,1001.5
2022-09-10T01:00:18.513Z,1001.5
2022-09-10T01:00:59.027Z,1001.53
2022-09-10T01:01:39.429Z,1001.5
2022-09-10T01:02:20.037Z,1001.52
2022-09-10T01:03:00.457Z,1001.55
2022-09-10T01:03:41.048Z,1001.53
2022-09-10T01:04:21.584Z,1001.54
2022-09-10T01:05:02.163Z,1001.5
2022-09-10T01:05:42.588Z,1001.52
2022-09-10T01:06:23.097Z,1001.51
2022-09-10T01:07:03.598Z,1001.54
2022-09-10T01:07:44.150Z,1001.5
2022-09-10T01:08:24.675Z,1001.48
2022-09-10T01:09:05.186Z,1001.51
2022-09-10T01:09:45.662Z,1001.5
2022-09-10T01:10:26.200Z,1001.52
2022-09-10T01:11:06.699Z,1001.48
2022-09-10T01:11:47.248Z,1001.52
2022-09-10T01:12:27.835Z,1001.54
2022-09-10T01:13:08.318Z,1001.52
2022-09-10T01:13:48.844Z,1001.51
2022-09-10T01:14:29.355Z,1001.5
2022-09-10T01:15:09.832Z,1001.52
2022-09-10T01:15:50.363Z,1001.56
2022-09-10T01:16:30.892Z,1001.51
2022-09-10T01:17:11.338Z,1001.53
2022-09-10T01:17:51.851Z,1001.5
2022-09-10T01:18:32.351Z,1001.49
2022-09-10T01:19:12.879Z,1001.49
2022-09-10T01:19:53.333Z,1001.47
2022-09-10T01:20:33.833Z,1001.47
2022-09-10T01:21:14.285Z,1001.46
2022-09-10T01:21:54.972Z,1001.44
2022-09-10T01:22:35.458Z,1001.43
2022-09-10T01:23:17.856Z,1001.45
2022-09-10T01:23:56.505Z,1001.46
2022-09-10T01:24:36.939Z,1001.48
2022-09-10T01:25:17.417Z,1001.45
2022-09-10T01:25:58.022Z,1001.46
2022-09-10T01:26:38.491Z,1001.45
2022-09-10T01:27:19.058Z,1001.43
2022-09-10T01:27:59.614Z,1001.4
2022-09-10T01:28:40.181Z,1001.45
2022-09-10T01:29:20.672Z,1001.41
2022-09-10T01:30:01.218Z,1001.38
2022-09-10T01:30:41.710Z,1001.44
2022-09-10T01:31:22.273Z,1001.41
2022-09-10T01:32:02.685Z,1001.43
2022-09-10T01:32:43.169Z,1001.42
2022-09-10T01:33:23.682Z,1001.4
2022-09-10T01:34:04.188Z,1001.39
2022-09-10T01:34:44.674Z,1001.36
2022-09-10T01:35:25.177Z,1001.4
2022-09-10T01:36:05.677Z,1001.41
2022-09-10T01:36:46.171Z,1001.42
2022-09-10T01:37:26.700Z,1001.45
2022-09-10T01:38:07.166Z,1001.45
2022-09-10T01:38:47.696Z,1001.46
2022-09-10T01:39:28.187Z,1001.48
2022-09-10T01:40:08.772Z,1001.45
2022-09-10T01:40:49.148Z,1001.49
2022-09-10T01:41:29.631Z,1001.51
2022-09-10T01:42:10.124Z,1001.48
2022-09-10T01:42:50.622Z,1001.52
2022-09-10T01:43:31.118Z,1001.48
2022-09-10T01:44:11.614Z,1001.5
2022-09-10T01:44:52.139Z,1001.52
2022-09-10T01:45:32.637Z,1001.48
2022-09-10T01:46:13.091Z,1001.5
2022-09-10T01:46:53.651Z,1001.4
2022-09-10T01:47:34.121Z,1001.45
2022-09-10T01:48:14.588Z,1001.43
2022-09-10T01:48:55.154Z,1001.43
2022-09-10T01:49:35.569Z,1001.42
2022-09-10T01:50:16.088Z,1001.44
2022-09-10T01:50:56.593Z,1001.45
2022-09-10T01:51:37.030Z,1001.48
2022-09-10T01:52:17.520Z,1001.45
2022-09-10T01:52:58.018Z,1001.48
2022-09-10T01:53:38.499Z,1001.42
2022-09-10T01:54:18.971Z,1001.43
2022-09-10T01:54:59.466Z,1001.48
2022-09-10T01:55:39.960Z,1001.45
2022-09-10T01:56:20.463Z,1001.47
2022-09-10T01:57:01.013Z,1001.46
2022-09-10T01:57:41.506Z,1001.47
2022-09-10T01:58:21.952Z,1001.49
2022-09-10T01:59:02.404Z,1001.44
2022-09-10T01:59:42.989Z,1001.48
2022-09-10T02:00:23.418Z,1001.47
2022-09-10T02:01:04.004Z,1001.42
2022-09-10T02:01:44.497Z,1001.43
2022-09-10T02:02:24.975Z,1001.44
2022-09-10T02:03:05.411Z,1001.42
2022-09-10T02:03:45.882Z,1001.39
2022-09-10T02:04:26.368Z,1001.38
2022-09-10T02:05:06.863Z,1001.36
2022-09-10T02:05:47.310Z,1001.43
2022-09-10T02:06:27.795Z,1001.38
2022-09-10T02:07:08.303Z,1001.39
2022-09-10T02:07:48.771Z,1001.37
2022-09-10T02:08:29.263Z,1001.4
2022-09-10T02:09:09.767Z,1001.39
2022-09-10T02:09:50.261Z,1001.35
2022-09-10T02:10:30.737Z,1001.41
2022-09-10T02:11:11.246Z,1001.36
2022-09-10T02:11:51.724Z,1001.4
2022-09-10T02:12:32.171Z,1001.38
2022-09-10T02:13:12.679Z,1001.42
2022-09-10T02:13:53.166Z,1001.42
2022-09-10T02:14:33.652Z,1001.45
2022-09-10T02:15:14.163Z,1001.43
2022-09-10T02:15:54.635Z,1001.39
2022-09-10T02:16:35.143Z,1001.41
2022-09-10T02:17:15.600Z,1001.42
2022-09-10T02:17:56.160Z,1001.43
2022-09-10T02:18:36.643Z,1001.37
2022-09-10T02:19:17.615Z,1001.37
2022-09-10T02:19:58.117Z,1001.41
2022-09-10T02:20:38.611Z,1001.42
2022-09-10T02:21:19.111Z,1001.39
2022-09-10T02:22:40.042Z,1001.39
2022-09-10T02:23:20.526Z,1001.37
2022-09-10T02:24:02.017Z,1001.35
2022-09-10T02:27:20.879Z,1001.32
2022-09-10T02:28:01.752Z,1001.32
2022-09-10T02:28:41.916Z,1001.39
2022-09-10T02:29:22.388Z,1001.33
2022-09-10T02:30:02.855Z,1001.38
2022-09-10T02:30:43.333Z,1001.34
2022-09-10T02:31:23.963Z,1001.33
2022-09-10T02:32:04.273Z,1001.36
2022-09-10T02:32:45.682Z,1001.35
2022-09-10T02:33:26.159Z,1001.34
2022-09-10T02:34:06.674Z,1001.37
2022-09-10T02:34:47.121Z,1001.35
2022-09-10T02:35:27.591Z,1001.35
2022-09-10T02:36:08.050Z,1001.34
2022-09-10T02:36:48.514Z,1001.3
2022-09-10T02:37:28.999Z,1001.32
2022-09-10T02:38:09.517Z,1001.34
2022-09-10T02:38:50.041Z,1001.35
2022-09-10T02:39:30.499Z,1001.33
2022-09-10T02:40:11.056Z,1001.32
2022-09-10T02:40:51.483Z,1001.32
2022-09-10T02:41:31.992Z,1001.3
2022-09-10T02:42:12.454Z,1001.31
2022-09-10T02:42:53.630Z,1001.3
2022-09-10T02:43:34.170Z,1001.29
2022-09-10T02:44:14.697Z,1001.29
2022-09-10T02:44:55.107Z,1001.28
2022-09-10T02:45:35.668Z,1001.25
2022-09-10T02:46:16.080Z,1001.23
2022-09-10T02:46:56.652Z,1001.26
2022-09-10T02:47:37.158Z,1001.25
2022-09-10T02:48:17.637Z,1001.25
2022-09-10T02:48:58.187Z,1001.27
2022-09-10T02:49:38.638Z,1001.27
2022-09-10T02:50:19.125Z,1001.29
2022-09-10T02:50:59.715Z,1001.26
2022-09-10T02:51:40.081Z,1001.26
2022-09-10T02:52:20.562Z,1001.27
2022-09-10T02:53:01.048Z,1001.25
2022-09-10T02:53:41.558Z,1001.29
2022-09-10T02:54:22.057Z,1001.27
2022-09-10T02:57:36.207Z,1001.29
2022-09-10T02:58:16.712Z,1001.28
2022-09-10T02:58:57.145Z,1001.31
2022-09-10T02:59:37.627Z,1001.32
2022-09-10T03:00:18.112Z,1001.31
2022-09-10T03:00:58.625Z,1001.34
2022-09-10T03:02:19.584Z,1001.3
2022-09-10T03:03:03.017Z,1001.27
2022-09-10T03:03:40.594Z,1001.29
2022-09-10T03:04:21.131Z,1001.27
2022-09-10T03:05:01.664Z,1001.25
2022-09-10T03:05:43.059Z,1001.3
2022-09-10T03:06:23.560Z,1001.26
2022-09-10T03:07:04.074Z,1001.26
2022-09-10T03:07:44.556Z,1001.28
2022-09-10T03:08:25.029Z,1001.22
2022-09-10T03:09:05.554Z,1001.27
2022-09-10T03:09:46.040Z,1001.29
2022-09-10T03:10:26.497Z,1001.29
2022-09-10T03:11:07.012Z,1001.28
2022-09-10T03:12:27.898Z,1001.28
2022-09-10T03:13:08.412Z,1001.24
2022-09-10T03:13:48.911Z,1001.21
2022-09-10T03:14:29.375Z,1001.24
2022-09-10T03:15:09.910Z,1001.21
2022-09-10T03:15:50.365Z,1001.21
2022-09-10T03:16:30.869Z,1001.21
2022-09-10T03:17:11.339Z,1001.22
2022-09-10T03:17:51.813Z,1001.22
2022-09-10T03:18:32.285Z,1001.2
2022-09-10T03:19:12.792Z,1001.22
2022-09-10T03:19:53.303Z,1001.19
2022-09-10T03:20:33.806Z,1001.24
2022-09-10T03:21:14.240Z,1001.22
2022-09-10T03:21:54.711Z,1001.22
2022-09-10T03:22:35.186Z,1001.22
2022-09-10T03:23:15.663Z,1001.21
2022-09-10T03:23:57.039Z,1001.23
2022-09-10T03:24:36.611Z,1001.24
2022-09-10T03:25:17.131Z,1001.27
2022-09-10T03:25:57.621Z,1001.23
2022-09-10T03:26:38.145Z,1001.28
2022-09-10T03:27:18.604Z,1001.26
2022-09-10T03:27:59.090Z,1001.28
2022-09-10T03:28:39.658Z,1001.3
2022-09-10T03:30:00.551Z,1001.33
2022-09-10T03:30:41.013Z,1001.33
2022-09-10T03:31:21.501Z,1001.33
2022-09-10T03:32:01.956Z,1001.34
2022-09-10T03:32:42.442Z,1001.29
2022-09-10T03:33:23.012Z,1001.29
2022-09-10T03:34:03.478Z,1001.29
2022-09-10T03:34:43.951Z,1001.32
2022-09-10T03:35:24.410Z,1001.32
2022-09-10T03:36:04.893Z,1001.32
2022-09-10T03:36:45.374Z,1001.3
2022-09-10T03:37:25.812Z,1001.34
2022-09-10T03:38:06.288Z,1001.29
2022-09-10T03:38:46.759Z,1001.37
2022-09-10T03:39:27.273Z,1001.29
2022-09-10T03:40:07.754Z,1001.32
2022-09-10T03:40:48.191Z,1001.32
2022-09-10T03:41:28.693Z,1001.33
2022-09-10T03:42:09.248Z,1001.34
2022-09-10T03:42:49.688Z,1001.34
2022-09-10T03:43:30.172Z,1001.33
2022-09-10T03:44:10.632Z,1001.35
2022-09-10T03:44:51.085Z,1001.33
2022-09-10T03:45:31.619Z,1001.37
2022-09-10T03:46:12.259Z,1001.36
2022-09-10T03:46:52.527Z,1001.37
2022-09-10T03:47:32.972Z,1001.36
2022-09-10T03:48:13.535Z,1001.36
2022-09-10T03:48:55.421Z,1001.34
2022-09-10T03:49:34.538Z,1001.32
2022-09-10T03:52:33.206Z,1001.36
2022-09-10T03:53:13.619Z,1001.37
2022-09-10T03:53:54.115Z,1001.34
2022-09-10T03:54:34.641Z,1001.37
2022-09-10T03:55:15.093Z,1001.36
2022-09-10T03:55:55.560Z,1001.39
2022-09-10T03:56:36.018Z,1001.39
2022-09-10T03:57:16.603Z,1001.36
2022-09-10T03:57:57.085Z,1001.38
2022-09-10T03:58:37.572Z,1001.37
2022-09-10T03:59:18.085Z,1001.39
2022-09-10T03:59:58.539Z,1001.36
2022-09-10T04:00:39.055Z,1001.38
2022-09-10T04:01:19.561Z,1001.39
2022-09-10T04:02:00.050Z,1001.36
2022-09-10T04:02:40.467Z,1001.39
2022-09-10T04:03:20.971Z,1001.4
2022-09-10T04:04:01.439Z,1001.35
2022-09-10T04:04:42.733Z,1001.4
2022-09-10T04:05:23.237Z,1001.38
2022-09-10T04:06:04.340Z,1001.37
2022-09-10T04:07:25.320Z,1001.4
2022-09-10T04:08:05.804Z,1001.38
2022-09-10T04:08:46.330Z,1001.36
2022-09-10T04:09:26.780Z,1001.38
2022-09-10T04:10:07.325Z,1001.39
2022-09-10T04:10:47.867Z,1001.38
2022-09-10T04:11:28.321Z,1001.36
2022-09-10T04:12:09.578Z,1001.36
2022-09-10T04:12:50.042Z,1001.35
2022-09-10T04:13:30.501Z,1001.38
2022-09-10T04:14:51.493Z,1001.39
2022-09-10T04:15:32.071Z,1001.4
2022-09-10T04:16:12.598Z,1001.39
2022-09-10T04:16:53.042Z,1001.39
2022-09-10T04:17:33.509Z,1001.41
2022-09-10T04:18:14.039Z,1001.45
2022-09-10T04:18:54.506Z,1001.43
2022-09-10T04:19:35.217Z,1001.43
2022-09-10T04:20:15.697Z,1001.41
2022-09-10T04:20:56.199Z,1001.41
2022-09-10T04:21:36.695Z,1001.39
2022-09-10T04:22:17.127Z,1001.4
2022-09-10T04:22:57.619Z,1001.43
2022-09-10T04:23:38.144Z,1001.44
2022-09-10T04:24:18.570Z,1001.43
2022-09-10T04:24:59.111Z,1001.4
2022-09-10T04:25:39.496Z,1001.42
2022-09-10T04:26:20.017Z,1001.45
2022-09-10T04:27:00.773Z,1001.46
2022-09-10T04:27:41.236Z,1001.43
2022-09-10T04:28:21.775Z,1001.49
2022-09-10T04:29:02.327Z,1001.46
2022-09-10T04:29:42.807Z,1001.43
2022-09-10T04:30:23.324Z,1001.48
2022-09-10T04:31:03.761Z,1001.41
2022-09-10T04:31:44.303Z,1001.44
2022-09-10T04:32:24.727Z,1001.47
2022-09-10T04:33:05.248Z,1001.47
2022-09-10T04:33:45.659Z,1001.46
2022-09-10T04:35:06.688Z,1001.46
2022-09-10T04:35:47.148Z,1001.5
2022-09-10T04:36:27.610Z,1001.48
2022-09-10T04:37:08.117Z,1001.47
2022-09-10T04:37:48.611Z,1001.48
2022-09-10T04:38:29.086Z,1001.49
2022-09-10T04:39:09.616Z,1001.49
2022-09-10T04:39:50.171Z,1001.52
2022-09-10T04:40:30.637Z,1001.49
2022-09-10T04:41:11.137Z,1001.47
2022-09-10T04:41:51.601Z,1001.49
2022-09-10T04:42:32.104Z,1001.54
2022-09-10T04:43:12.600Z,1001.52
2022-09-10T04:43:53.086Z,1001.54
2022-09-10T04:45:14.103Z,1001.54
2022-09-10T04:45:54.599Z,1001.49
2022-09-10T04:46:35.097Z,1001.52
2022-09-10T04:47:15.537Z,1001.48
2022-09-10T04:47:56.074Z,1001.47
2022-09-10T04:48:36.583Z,1001.49
2022-09-10T04:49:17.011Z,1001.5
2022-09-10T04:49:57.563Z,1001.49
2022-09-10T04:50:38.012Z,1001.48
2022-09-10T04:51:18.651Z,1001.48
2022-09-10T04:51:59.219Z,1001.48
2022-09-10T04:52:39.750Z,1001.5
2022-09-10T04:53:20.170Z,1001.46
2022-09-10T04:54:00.646Z,1001.47
2022-09-10T04:54:41.181Z,1001.45
2022-09-10T04:55:21.648Z,1001.45
2022-09-10T04:56:02.165Z,1001.45
2022-09-10T04:56:42.638Z,1001.45
2022-09-10T04:57:23.114Z,1001.47
2022-09-10T04:58:04.102Z,1001.49
2022-09-10T04:58:45.083Z,1001.46
2022-09-10T04:59:25.025Z,1001.46
2022-09-10T05:00:05.499Z,1001.46
2022-09-10T05:00:46.030Z,1001.5
2022-09-10T05:01:26.527Z,1001.48
2022-09-10T05:02:07.021Z,1001.5
2022-09-10T05:02:47.457Z,1001.48
2022-09-10T05:03:28.025Z,1001.5
2022-09-10T05:04:08.429Z,1001.46
2022-09-10T05:04:48.926Z,1001.45
2022-09-10T05:05:29.399Z,1001.45
2022-09-10T05:06:09.951Z,1001.41
2022-09-10T05:06:50.371Z,1001.46
2022-09-10T05:07:30.855Z,1001.44
2022-09-10T05:08:11.313Z,1001.44
2022-09-10T05:08:51.812Z,1001.44
2022-09-10T05:09:32.287Z,1001.45
2022-09-10T05:10:12.770Z,1001.42
2022-09-10T05:10:53.242Z,1001.42
2022-09-10T05:11:33.781Z,1001.42
2022-09-10T05:12:14.256Z,1001.45
2022-09-10T05:12:54.714Z,1001.41
2022-09-10T05:13:35.191Z,1001.4
2022-09-10T05:14:15.687Z,1001.43
2022-09-10T05:15:36.637Z,1001.44
2022-09-10T05:16:17.090Z,1001.43
2022-09-10T05:16:57.582Z,1001.48
2022-09-10T05:17:38.048Z,1001.48
2022-09-10T05:18:18.554Z,1001.5
2022-09-10T05:18:59.060Z,1001.51
2022-09-10T05:19:39.544Z,1001.52
2022-09-10T05:20:20.058Z,1001.52
2022-09-10T05:21:00.482Z,1001.49
2022-09-10T05:21:41.014Z,1001.52
2022-09-10T05:22:21.490Z,1001.5
2022-09-10T05:23:01.993Z,1001.55
2022-09-10T05:23:42.490Z,1001.52
2022-09-10T05:24:22.957Z,1001.56
2022-09-10T05:25:03.502Z,1001.55
2022-09-10T05:25:43.999Z,1001.57
2022-09-10T05:26:24.381Z,1001.52
2022-09-10T05:27:04.948Z,1001.54
2022-09-10T05:27:45.417Z,1001.53
2022-09-10T05:28:25.924Z,1001.53
2022-09-10T05:29:06.417Z,1001.49
2022-09-10T05:30:27.922Z,1001.51
2022-09-10T05:31:08.438Z,1001.51
2022-09-10T05:31:49.011Z,1001.54
2022-09-10T05:32:29.439Z,1001.55
2022-09-10T05:33:09.937Z,1001.54
2022-09-10T05:33:50.441Z,1001.54
2022-09-10T05:34:30.943Z,1001.57
2022-09-10T05:35:11.426Z,1001.58
2022-09-10T05:35:52.066Z,1001.58
2022-09-10T05:36:32.438Z,1001.57
2022-09-10T05:37:13.026Z,1001.58
2022-09-10T05:37:54.148Z,1001.63
2022-09-10T05:38:38.164Z,1001.67
2022-09-10T05:39:15.070Z,1001.61
2022-09-10T05:40:35.992Z,1001.64
2022-09-10T05:41:16.479Z,1001.63
2022-09-10T05:41:57.060Z,1001.63
2022-09-10T05:42:37.537Z,1001.65
2022-09-10T05:43:18.039Z,1001.65
2022-09-10T05:43:58.477Z,1001.65
2022-09-10T05:44:38.980Z,1001.61
2022-09-10T05:45:19.491Z,1001.64
2022-09-10T05:46:00.020Z,1001.64
2022-09-10T05:46:40.424Z,1001.67
2022-09-10T05:47:20.914Z,1001.64
2022-09-10T05:48:01.442Z,1001.63
2022-09-10T05:48:43.135Z,1001.67
2022-09-10T05:49:23.274Z,1001.63
2022-09-10T05:50:03.733Z,1001.64
2022-09-10T05:50:44.222Z,1001.67
2022-09-10T05:51:24.769Z,1001.65
2022-09-10T05:52:05.907Z,1001.65
2022-09-10T05:52:46.343Z,1001.67
2022-09-10T05:53:26.825Z,1001.69
2022-09-10T05:54:07.333Z,1001.65
2022-09-10T06:32:08.241Z,1002.02
2022-09-10T06:32:48.986Z,1002.04
2022-09-10T06:33:30.450Z,1002.05
2022-09-10T06:34:10.927Z,1002.07
2022-09-10T06:34:51.445Z,1002.06
2022-09-10T06:35:31.930Z,1002.04
2022-09-10T06:36:12.456Z,1002.12
2022-09-10T06:36:52.945Z,1002.13
2022-09-10T06:37:33.517Z,1002.14
2022-09-10T06:38:13.964Z,1002.06
2022-09-10T06:38:54.488Z,1002.07
2022-09-10T06:39:35.070Z,1002.08
2022-09-10T06:40:15.539Z,1002.11
2022-09-10T06:40:55.997Z,1002.12
2022-09-10T06:41:36.557Z,1002.11
2022-09-10T06:42:17.030Z,1002.11
2022-09-10T06:42:58.554Z,1002.13
2022-09-10T06:43:39.020Z,1002.12
2022-09-10T06:44:19.500Z,1002.14
2022-09-10T06:45:00.011Z,1002.15
2022-09-10T06:45:40.549Z,1002.08
2022-09-10T06:48:39.993Z,1002.13
2022-09-10T06:49:03.085Z,1002.11
2022-09-10T06:49:43.617Z,1002.09
2022-09-10T06:50:24.081Z,1002.13
2022-09-10T06:51:04.589Z,1002.11
2022-09-10T06:51:45.024Z,1002.16
2022-09-10T06:52:25.501Z,1002.15
2022-09-10T06:53:06.018Z,1002.15
2022-09-10T06:53:46.479Z,1002.14
2022-09-10T06:54:26.991Z,1002.2
2022-09-10T06:55:07.427Z,1002.2
2022-09-10T06:55:47.911Z,1002.17
2022-09-10T06:56:28.538Z,1002.18
2022-09-10T06:57:09.041Z,1002.21
2022-09-10T06:57:49.477Z,1002.21
2022-09-10T06:58:29.997Z,1002.21
2022-09-10T06:59:11.170Z,1002.24
2022-09-10T06:59:51.802Z,1002.24
2022-09-10T07:00:32.378Z,1002.25
2022-09-10T07:01:12.891Z,1002.26
2022-09-10T07:01:53.338Z,1002.24
2022-09-10T07:02:33.767Z,1002.24
2022-09-10T07:03:14.286Z,1002.23
2022-09-10T07:03:54.708Z,1002.23
2022-09-10T07:04:35.209Z,1002.19
2022-09-10T07:05:15.713Z,1002.22
2022-09-10T07:05:56.274Z,1002.23
2022-09-10T07:06:36.757Z,1002.27
2022-09-10T07:07:17.300Z,1002.26
2022-09-10T07:07:57.851Z,1002.23
2022-09-10T07:08:38.591Z,1002.25
2022-09-10T07:09:18.877Z,1002.25
2022-09-10T07:09:59.383Z,1002.23
2022-09-10T07:10:39.844Z,1002.23
2022-09-10T07:11:20.383Z,1002.28
2022-09-10T07:12:00.838Z,1002.29
2022-09-10T07:12:41.324Z,1002.26
2022-09-10T07:13:21.794Z,1002.28
2022-09-10T07:16:52.052Z,1002.32
2022-09-10T07:17:32.692Z,1002.32
2022-09-10T07:18:13.180Z,1002.3
2022-09-10T07:18:53.682Z,1002.28
2022-09-10T07:19:34.150Z,1002.29
2022-09-10T07:20:14.710Z,1002.31
2022-09-10T07:20:55.177Z,1002.34
2022-09-10T07:22:16.150Z,1002.32
2022-09-10T07:22:56.574Z,1002.34
2022-09-10T07:23:37.099Z,1002.31
2022-09-10T07:24:17.608Z,1002.33
2022-09-10T07:24:58.080Z,1002.33
2022-09-10T07:25:38.636Z,1002.32
2022-09-10T07:26:18.997Z,1002.36
2022-09-10T07:26:59.527Z,1002.34
2022-09-10T07:27:40.033Z,1002.37
2022-09-10T07:28:20.561Z,1002.36
2022-09-10T07:29:01.055Z,1002.37
2022-09-10T07:29:41.513Z,1002.39
2022-09-10T07:30:22.037Z,1002.35
2022-09-10T07:31:02.514Z,1002.37
2022-09-10T07:31:44.629Z,1002.37
2022-09-10T07:32:23.382Z,1002.37
2022-09-10T07:33:03.913Z,1002.39
2022-09-10T07:33:44.342Z,1002.39
2022-09-10T07:34:24.852Z,1002.4
2022-09-10T07:35:05.359Z,1002.36
2022-09-10T07:35:45.827Z,1002.37
2022-09-10T07:36:26.270Z,1002.36
2022-09-10T07:37:06.746Z,1002.35
2022-09-10T07:37:47.219Z,1002.4
2022-09-10T07:38:27.716Z,1002.39
2022-09-10T07:39:08.208Z,1002.37
2022-09-10T07:39:48.854Z,1002.36
2022-09-10T07:40:29.292Z,1002.38
2022-09-10T07:41:09.773Z,1002.41
2022-09-10T07:41:50.223Z,1002.41
2022-09-10T07:42:30.725Z,1002.39
2022-09-10T07:43:11.195Z,1002.39
2022-09-10T07:43:51.672Z,1002.39
2022-09-10T07:44:32.179Z,1002.43
2022-09-10T07:45:12.696Z,1002.43
2022-09-10T07:45:53.242Z,1002.42
2022-09-10T07:46:33.683Z,1002.42
2022-09-10T07:47:14.147Z,1002.42
2022-09-10T07:47:54.641Z,1002.43
2022-09-10T07:48:35.151Z,1002.42
2022-09-10T07:49:56.169Z,1002.46
2022-09-10T07:50:36.658Z,1002.43
2022-09-10T07:51:17.128Z,1002.42
2022-09-10T07:51:59.896Z,1002.41
2022-09-10T07:52:38.117Z,1002.44
2022-09-10T07:53:18.568Z,1002.44
2022-09-10T07:53:59.076Z,1002.44
2022-09-10T07:54:39.544Z,1002.45
2022-09-10T07:55:20.062Z,1002.45
2022-09-10T07:56:00.528Z,1002.46
2022-09-10T07:57:21.452Z,1002.46
2022-09-10T07:58:01.931Z,1002.49
2022-09-10T07:58:42.461Z,1002.49
2022-09-10T07:59:22.932Z,1002.44
2022-09-10T08:00:03.446Z,1002.48
2022-09-10T08:00:43.875Z,1002.45
2022-09-10T08:01:24.386Z,1002.47
2022-09-10T08:02:04.851Z,1002.5
2022-09-10T08:02:45.293Z,1002.46
2022-09-10T08:03:25.764Z,1002.51
2022-09-10T08:04:06.248Z,1002.54
2022-09-10T08:04:46.760Z,1002.5
2022-09-10T08:05:27.295Z,1002.5
2022-09-10T08:06:07.821Z,1002.53
2022-09-10T08:06:48.347Z,1002.51
2022-09-10T08:07:28.833Z,1002.5
2022-09-10T08:08:09.329Z,1002.51
2022-09-10T08:08:49.813Z,1002.53
2022-09-10T08:10:10.789Z,1002.55
2022-09-10T08:10:51.302Z,1002.56
2022-09-10T08:11:31.840Z,1002.6
2022-09-10T08:12:12.338Z,1002.6
2022-09-10T08:12:52.815Z,1002.56
2022-09-10T08:13:33.315Z,1002.55
2022-09-10T08:14:13.800Z,1002.53
2022-09-10T08:14:54.332Z,1002.55
2022-09-10T08:15:34.806Z,1002.6
2022-09-10T08:16:15.297Z,1002.57
2022-09-10T08:16:55.740Z,1002.56
2022-09-10T08:17:36.221Z,1002.61
2022-09-10T08:18:16.764Z,1002.62
2022-09-10T08:18:57.249Z,1002.65
2022-09-10T08:19:38.127Z,1002.64
2022-09-10T08:20:18.628Z,1002.66
2022-09-10T08:20:59.120Z,1002.68
2022-09-10T08:21:39.605Z,1002.66
2022-09-10T08:22:20.098Z,1002.66
2022-09-10T08:23:00.615Z,1002.67
2022-09-10T08:23:41.083Z,1002.68
2022-09-10T08:26:39.710Z,1002.65
2022-09-10T08:27:20.230Z,1002.61
2022-09-10T08:28:00.668Z,1002.73
2022-09-10T08:28:41.249Z,1002.7
2022-09-10T08:29:21.662Z,1002.73
2022-09-10T08:30:02.169Z,1002.68
2022-09-10T08:30:42.708Z,1002.7
2022-09-10T08:31:23.190Z,1002.67
2022-09-10T08:32:03.614Z,1002.71
2022-09-10T08:32:44.122Z,1002.71
2022-09-10T08:33:24.632Z,1002.7
2022-09-10T08:34:05.139Z,1002.7
2022-09-10T08:34:45.600Z,1002.77
2022-09-10T08:35:26.100Z,1002.72
2022-09-10T08:36:06.538Z,1002.7
2022-09-10T08:36:47.529Z,1002.7
2022-09-10T08:37:28.056Z,1002.74
2022-09-10T08:38:08.587Z,1002.67
2022-09-10T08:38:49.070Z,1002.7
2022-09-10T08:39:29.615Z,1002.69
2022-09-10T08:40:10.094Z,1002.7
2022-09-10T08:40:50.609Z,1002.7
2022-09-10T08:41:31.095Z,1002.74
2022-09-10T08:42:11.624Z,1002.73
2022-09-10T08:42:52.115Z,1002.67
2022-09-10T08:43:32.626Z,1002.74
2022-09-10T08:44:13.155Z,1002.73
2022-09-10T08:44:53.610Z,1002.72
2022-09-10T08:45:34.201Z,1002.71
2022-09-10T08:46:14.676Z,1002.74
2022-09-10T08:46:55.159Z,1002.71
2022-09-10T08:47:36.259Z,1002.67
2022-09-10T08:48:16.197Z,1002.64
2022-09-10T08:48:56.743Z,1002.67
2022-09-10T08:49:37.221Z,1002.66
2022-09-10T08:50:17.717Z,1002.59
2022-09-10T08:50:58.196Z,1002.67
2022-09-10T08:51:38.711Z,1002.67
2022-09-10T08:52:19.162Z,1002.62
2022-09-10T08:53:40.168Z,1002.6
2022-09-10T08:54:20.620Z,1002.61
2022-09-10T08:55:01.105Z,1002.62
2022-09-10T08:55:43.382Z,1002.61
2022-09-10T08:56:22.127Z,1002.65
2022-09-10T08:57:02.603Z,1002.59
2022-09-10T08:57:43.202Z,1002.61
2022-09-10T08:58:23.745Z,1002.64
2022-09-10T08:59:04.190Z,1002.64
2022-09-10T08:59:44.715Z,1002.63
2022-09-10T09:00:25.250Z,1002.65
2022-09-10T09:01:05.909Z,1002.66
2022-09-10T09:01:46.413Z,1002.62
2022-09-10T09:02:47.550Z,1002.64
2022-09-10T09:03:07.433Z,1002.67
2022-09-10T09:06:06.008Z,1002.7
2022-09-10T09:06:46.562Z,1002.68
2022-09-10T09:07:26.937Z,1002.68
2022-09-10T09:08:07.428Z,1002.71
2022-09-10T09:08:48.134Z,1002.69
2022-09-10T09:09:28.621Z,1002.71
2022-09-10T09:10:09.111Z,1002.71
2022-09-10T09:10:49.584Z,1002.74
2022-09-10T09:11:30.114Z,1002.69
2022-09-10T09:12:10.597Z,1002.69
2022-09-10T09:12:51.138Z,1002.7
2022-09-10T09:13:31.622Z,1002.69
2022-09-10T09:14:12.155Z,1002.72
2022-09-10T09:14:52.690Z,1002.7
2022-09-10T09:15:33.258Z,1002.68
2022-09-10T09:16:13.733Z,1002.7
2022-09-10T09:16:54.253Z,1002.7
2022-09-10T09:17:34.774Z,1002.71
2022-09-10T09:18:15.247Z,1002.74
2022-09-10T09:18:55.739Z,1002.67
2022-09-10T09:20:16.734Z,1002.73
2022-09-10T09:20:57.276Z,1002.74
2022-09-10T09:21:37.778Z,1002.73
2022-09-10T09:22:18.286Z,1002.69
2022-09-10T09:22:58.779Z,1002.68
2022-09-10T09:23:48.047Z,1002.71
2022-09-10T09:24:19.789Z,1002.69
2022-09-10T09:25:00.281Z,1002.68
2022-09-10T09:25:40.784Z,1002.7
2022-09-10T09:26:21.262Z,1002.74
2022-09-10T09:27:01.788Z,1002.66
2022-09-10T09:27:42.227Z,1002.72
2022-09-10T09:28:22.694Z,1002.64
2022-09-10T09:29:03.141Z,1002.67
2022-09-10T09:29:43.626Z,1002.7
2022-09-10T09:30:24.097Z,1002.68
2022-09-10T09:31:08.806Z,1002.7
2022-09-10T09:31:45.105Z,1002.69
2022-09-10T09:32:25.616Z,1002.68
2022-09-10T09:33:06.174Z,1002.67
2022-09-10T09:33:46.666Z,1002.7
2022-09-10T09:34:27.161Z,1002.73
2022-09-10T09:35:07.657Z,1002.7
2022-09-10T09:35:48.133Z,1002.74
2022-09-10T09:36:28.661Z,1002.73
2022-09-10T09:37:09.158Z,1002.74
2022-09-10T09:37:49.664Z,1002.75
2022-09-10T09:38:30.132Z,1002.77
2022-09-10T09:39:10.702Z,1002.75
2022-09-10T09:39:51.239Z,1002.7
2022-09-10T09:40:31.758Z,1002.74
2022-09-10T09:41:12.232Z,1002.72
2022-09-10T09:41:52.721Z,1002.72
2022-09-10T09:42:33.220Z,1002.73
2022-09-10T09:43:13.743Z,1002.74
2022-09-10T09:43:54.241Z,1002.72
2022-09-10T09:44:34.716Z,1002.76
2022-09-10T09:45:15.222Z,1002.73
2022-09-10T09:45:55.697Z,1002.74
2022-09-10T09:46:36.375Z,1002.79